Time;durP1;ratioP1;P1;durP2;ratioP2;P2;SDS_P1;SDS_P2;PMS_P1;PMS_P2;Temp;Humidity;BMP_temperature;BMP_pressure;BME280_temperature;BME280_humidity;BME280_pressure;Samples;Min_cycle;Max_cycle;Signal;HPM_P1;HPM_P2
2022/01/21 06:00:36;;;;;;;9.30;4.73;;;4.30;97.20;;;;;;1721706;28;20209;-85
2022/01/21 06:01:26;;;;;;;10.02;4.30;;;4.30;97.20;;;;;;1721829;28;20236;-87
2022/01/21 06:02:19;;;;;;;7.90;4.77;;;4.30;97.20;;;;;;1721755;28;20687;-88
2022/01/21 06:03:10;;;;;;;12.40;5.45;;;4.30;97.20;;;;;;1721915;28;20447;-87
2022/01/21 06:04:03;;;;;;;6.53;4.60;;;4.30;97.20;;;;;;1721465;28;20272;-87
2022/01/21 06:04:55;;;;;;;10.30;5.43;;;4.30;97.20;;;;;;1721276;28;20205;-88
2022/01/21 06:05:47;;;;;;;10.18;4.93;;;4.30;97.20;;;;;;1721619;28;20217;-87
2022/01/21 06:06:38;;;;;;;8.88;4.82;;;4.30;97.20;;;;;;1721585;28;20208;-87
2022/01/21 06:07:30;;;;;;;8.48;5.10;;;4.40;97.20;;;;;;1721653;28;20211;-84
2022/01/21 06:08:20;;;;;;;11.52;4.88;;;4.40;97.20;;;;;;1720859;28;20209;-85
2022/01/21 06:09:12;;;;;;;10.97;5.10;;;4.40;97.20;;;;;;1721375;28;20201;-85
2022/01/21 06:10:04;;;;;;;12.15;5.35;;;4.40;97.20;;;;;;1721670;28;20467;-85
2022/01/21 06:10:56;;;;;;;8.02;4.43;;;4.40;97.20;;;;;;1721614;28;20220;-87
2022/01/21 06:11:46;;;;;;;10.60;5.40;;;4.30;97.20;;;;;;1721613;28;20205;-85
2022/01/21 06:12:38;;;;;;;5.73;4.47;;;4.30;97.20;;;;;;1721742;28;20212;-86
2022/01/21 06:13:29;;;;;;;9.15;5.07;;;4.30;97.20;;;;;;1721777;28;20578;-85
2022/01/21 06:14:21;;;;;;;14.03;5.60;;;4.30;97.20;;;;;;1721624;28;20565;-86
2022/01/21 06:15:12;;;;;;;13.13;5.93;;;4.40;97.20;;;;;;1721557;28;20448;-86
2022/01/21 06:16:05;;;;;;;8.65;6.13;;;4.40;97.20;;;;;;1722345;28;20244;-85
2022/01/21 06:16:56;;;;;;;8.30;5.57;;;4.30;97.20;;;;;;1722596;28;20683;-85
2022/01/21 06:17:47;;;;;;;10.95;5.53;;;4.30;97.20;;;;;;1721555;28;20209;-84
2022/01/21 06:18:39;;;;;;;14.90;5.30;;;4.40;97.20;;;;;;1721737;28;20212;-85
2022/01/21 06:19:29;;;;;;;12.40;5.65;;;4.40;97.20;;;;;;1718586;28;20210;-85
2022/01/21 06:20:21;;;;;;;10.43;4.93;;;4.40;97.20;;;;;;1720323;28;20197;-85
2022/01/21 06:21:12;;;;;;;9.85;5.43;;;4.40;97.20;;;;;;1718086;28;20555;-85
2022/01/21 06:22:05;;;;;;;11.93;6.25;;;4.40;97.20;;;;;;1717432;28;20271;-85
2022/01/21 06:22:56;;;;;;;16.73;7.68;;;4.30;97.20;;;;;;1719392;28;20202;-84
2022/01/21 06:23:48;;;;;;;14.70;7.17;;;4.30;97.20;;;;;;1718085;28;20277;-85
2022/01/21 06:24:39;;;;;;;8.65;5.60;;;4.30;97.20;;;;;;1717669;28;20197;-85
2022/01/21 06:25:31;;;;;;;7.23;5.23;;;4.30;97.20;;;;;;1718546;28;20198;-84
2022/01/21 06:26:21;;;;;;;9.60;5.20;;;4.30;97.20;;;;;;1718747;28;20983;-84
2022/01/21 06:27:13;;;;;;;8.70;5.20;;;4.20;97.20;;;;;;1714827;28;20688;-84
2022/01/21 06:28:04;;;;;;;8.98;5.90;;;4.20;97.20;;;;;;1714703;28;20205;-84
2022/01/21 06:28:56;;;;;;;9.65;4.70;;;4.20;97.20;;;;;;1715063;28;20744;-85
2022/01/21 06:29:47;;;;;;;11.40;5.82;;;4.30;97.20;;;;;;1714964;28;20206;-85
2022/01/21 06:30:39;;;;;;;9.37;4.77;;;4.20;97.20;;;;;;1715928;28;20210;-83
2022/01/21 06:31:31;;;;;;;9.73;4.90;;;4.20;97.20;;;;;;1714928;28;20708;-85
2022/01/21 06:32:25;;;;;;;10.43;5.07;;;4.20;97.20;;;;;;1714896;28;20575;-85
2022/01/21 06:33:16;;;;;;;12.30;6.07;;;4.20;97.20;;;;;;1714966;28;20218;-84
2022/01/21 06:34:07;;;;;;;10.18;4.75;;;4.20;97.20;;;;;;1714858;28;20214;-85
2022/01/21 06:34:58;;;;;;;10.73;5.60;;;4.20;97.20;;;;;;1714955;28;20220;-84
2022/01/21 06:35:51;;;;;;;8.37;4.80;;;4.20;97.20;;;;;;1715014;28;20202;-84
2022/01/21 06:36:41;;;;;;;10.23;5.30;;;4.20;97.20;;;;;;1715020;28;20906;-84
2022/01/21 06:37:33;;;;;;;11.70;5.27;;;4.30;97.20;;;;;;1714826;28;20225;-84
2022/01/21 06:38:26;;;;;;;13.38;5.80;;;4.30;97.20;;;;;;1717847;28;20447;-83
2022/01/21 06:39:18;;;;;;;12.07;5.97;;;4.30;97.20;;;;;;1721409;28;20251;-83
2022/01/21 06:40:10;;;;;;;9.90;4.57;;;4.30;97.20;;;;;;1721652;28;20205;-83
2022/01/21 06:41:01;;;;;;;9.15;5.10;;;4.30;97.20;;;;;;1721680;28;20205;-86
2022/01/21 06:41:53;;;;;;;7.53;4.00;;;4.40;97.20;;;;;;1721731;28;20292;-83
2022/01/21 06:42:44;;;;;;;10.20;4.88;;;4.40;97.20;;;;;;1721742;28;20212;-83
2022/01/21 06:43:35;;;;;;;12.27;5.20;;;4.40;97.20;;;;;;1718332;28;20675;-84
2022/01/21 06:44:26;;;;;;;9.60;4.93;;;4.40;97.20;;;;;;1718994;28;20193;-83
2022/01/21 06:45:19;;;;;;;11.57;5.33;;;4.40;97.20;;;;;;1720978;28;20194;-83
2022/01/21 06:46:10;;;;;;;14.75;5.30;;;4.40;97.20;;;;;;1721671;28;20479;-83
2022/01/21 06:47:03;;;;;;;7.32;4.22;;;4.40;97.20;;;;;;1721652;28;20197;-84
2022/01/21 06:47:54;;;;;;;10.05;5.25;;;4.40;97.20;;;;;;1721596;28;20205;-83
2022/01/21 06:48:46;;;;;;;10.07;5.07;;;4.40;97.20;;;;;;1721622;28;20205;-83
2022/01/21 06:49:37;;;;;;;9.68;5.30;;;4.40;97.20;;;;;;1721608;28;20445;-84
2022/01/21 06:50:29;;;;;;;9.93;4.93;;;4.40;97.20;;;;;;1721441;28;20205;-84
2022/01/21 06:51:21;;;;;;;8.88;4.40;;;4.40;97.20;;;;;;1721589;28;20668;-84
2022/01/21 06:52:11;;;;;;;8.85;4.72;;;4.40;97.20;;;;;;1721607;28;20240;-84
2022/01/21 06:53:04;;;;;;;10.60;5.50;;;4.40;97.20;;;;;;1721473;28;20207;-84
2022/01/21 06:53:55;;;;;;;11.07;4.90;;;4.50;97.20;;;;;;1721707;28;20209;-84
2022/01/21 06:54:47;;;;;;;10.48;5.00;;;4.50;97.20;;;;;;1721468;28;20730;-83
2022/01/21 06:55:38;;;;;;;8.90;4.43;;;4.50;97.20;;;;;;1721747;28;20201;-84
2022/01/21 06:56:30;;;;;;;12.85;5.93;;;4.50;97.20;;;;;;1721706;28;20201;-84
2022/01/21 06:57:21;;;;;;;11.10;5.30;;;4.50;97.20;;;;;;1720715;28;20575;-83
2022/01/21 06:58:13;;;;;;;8.33;5.20;;;4.50;97.20;;;;;;1721342;28;20627;-83
2022/01/21 06:59:04;;;;;;;9.25;4.60;;;4.50;97.20;;;;;;1721476;28;20453;-83
2022/01/21 06:59:56;;;;;;;6.27;5.20;;;4.50;97.20;;;;;;1721563;28;20211;-84
2022/01/21 07:00:47;;;;;;;11.05;5.68;;;4.50;97.20;;;;;;1720897;28;20232;-83
2022/01/21 07:01:39;;;;;;;11.40;5.03;;;4.50;97.20;;;;;;1721649;28;20212;-83
2022/01/21 07:02:31;;;;;;;9.98;5.60;;;4.50;97.20;;;;;;1721442;28;20664;-83
2022/01/21 07:03:24;;;;;;;8.35;4.90;;;4.50;97.20;;;;;;1721620;28;20223;-83
2022/01/21 07:04:16;;;;;;;16.45;5.40;;;4.50;97.20;;;;;;1721574;28;20209;-84
2022/01/21 07:05:07;;;;;;;8.70;5.10;;;4.50;97.20;;;;;;1721469;28;20240;-83
2022/01/21 07:05:59;;;;;;;10.70;5.90;;;4.50;97.20;;;;;;1721602;28;20279;-84
2022/01/21 07:06:50;;;;;;;11.55;5.90;;;4.50;97.20;;;;;;1721640;28;20235;-84
2022/01/21 07:07:42;;;;;;;8.13;4.77;;;4.50;97.20;;;;;;1721243;28;20299;-83
2022/01/21 07:08:34;;;;;;;10.32;4.72;;;4.50;97.20;;;;;;1722370;28;20449;-84
2022/01/21 07:09:26;;;;;;;12.32;5.97;;;4.50;97.20;;;;;;1722150;28;20209;-84
2022/01/21 07:10:18;;;;;;;12.30;5.40;;;4.50;97.20;;;;;;1721695;28;20205;-83
2022/01/21 07:11:09;;;;;;;12.88;5.70;;;4.50;97.20;;;;;;1721276;28;20197;-84
2022/01/21 07:12:01;;;;;;;9.33;5.40;;;4.50;97.20;;;;;;1721452;28;20205;-83
2022/01/21 07:12:53;;;;;;;8.65;4.53;;;4.50;97.20;;;;;;1721429;28;20252;-83
2022/01/21 07:13:43;;;;;;;13.13;5.57;;;4.50;97.20;;;;;;1721352;28;20205;-84
2022/01/21 07:14:35;;;;;;;9.57;5.40;;;4.50;97.20;;;;;;1721504;28;20287;-84
2022/01/21 07:15:26;;;;;;;7.85;4.50;;;4.50;97.20;;;;;;1721817;28;20804;-84
2022/01/21 07:16:18;;;;;;;7.53;4.60;;;4.50;97.20;;;;;;1721583;28;20573;-84
2022/01/21 07:17:10;;;;;;;12.02;5.63;;;4.50;97.20;;;;;;1721971;28;20216;-84
2022/01/21 07:18:02;;;;;;;9.13;4.55;;;4.50;97.20;;;;;;1721291;28;20208;-83
2022/01/21 07:18:54;;;;;;;9.90;5.68;;;4.50;97.20;;;;;;1721823;28;20205;-83
2022/01/21 07:19:44;;;;;;;16.75;4.82;;;4.50;97.20;;;;;;1721671;28;20198;-84
2022/01/21 07:20:36;;;;;;;8.73;5.27;;;4.50;97.20;;;;;;1721269;28;20221;-84
2022/01/21 07:21:27;;;;;;;9.73;5.20;;;4.50;97.20;;;;;;1722283;28;20448;-83
2022/01/21 07:22:19;;;;;;;11.13;5.10;;;4.50;97.20;;;;;;1722231;28;20197;-83
2022/01/21 07:23:10;;;;;;;9.27;5.53;;;4.50;97.20;;;;;;1721942;28;20212;-84
2022/01/21 07:24:01;;;;;;;11.63;5.50;;;4.50;97.20;;;;;;1722484;28;20197;-84
2022/01/21 07:24:52;;;;;;;11.23;5.50;;;4.40;97.20;;;;;;1722496;28;20209;-84
2022/01/21 07:25:44;;;;;;;9.73;5.10;;;4.50;97.20;;;;;;1722345;28;20284;-84
2022/01/21 07:26:35;;;;;;;6.10;4.70;;;4.50;97.20;;;;;;1722125;28;20202;-84
2022/01/21 07:27:26;;;;;;;9.53;5.50;;;4.40;97.20;;;;;;1721745;28;20205;-84
2022/01/21 07:28:17;;;;;;;12.40;5.47;;;4.40;97.20;;;;;;1721797;28;20483;-84
2022/01/21 07:29:09;;;;;;;12.07;5.63;;;4.40;97.20;;;;;;1722270;28;20197;-84
2022/01/21 07:30:00;;;;;;;10.98;4.90;;;4.40;97.20;;;;;;1721916;28;20205;-84
2022/01/21 07:30:52;;;;;;;11.98;5.88;;;4.40;97.20;;;;;;1721770;28;20221;-84
2022/01/21 07:31:43;;;;;;;11.27;5.82;;;4.50;97.20;;;;;;1721958;28;20660;-84
2022/01/21 07:32:35;;;;;;;10.27;6.00;;;4.50;97.20;;;;;;1722025;28;20656;-83
2022/01/21 07:33:27;;;;;;;13.43;5.72;;;4.50;97.20;;;;;;1721731;28;20467;-84
2022/01/21 07:34:19;;;;;;;13.45;7.10;;;4.50;97.20;;;;;;1721814;28;20228;-83
2022/01/21 07:35:11;;;;;;;8.85;4.95;;;4.50;97.20;;;;;;1722126;28;20255;-83
2022/01/21 07:36:03;;;;;;;13.98;5.50;;;4.50;97.20;;;;;;1721845;28;20280;-83
2022/01/21 07:36:55;;;;;;;10.43;5.38;;;4.50;97.20;;;;;;1721605;28;20692;-84
2022/01/21 07:37:46;;;;;;;10.00;5.20;;;4.50;97.20;;;;;;1718572;28;20192;-84
2022/01/21 07:38:38;;;;;;;13.32;5.68;;;4.50;97.20;;;;;;1718979;28;20194;-83
2022/01/21 07:39:30;;;;;;;15.02;5.63;;;4.50;97.20;;;;;;1718479;28;20207;-84
2022/01/21 07:40:21;;;;;;;9.30;5.60;;;4.40;97.20;;;;;;1717680;28;20204;-84
2022/01/21 07:41:13;;;;;;;7.27;5.00;;;4.40;97.20;;;;;;1717956;28;20201;-85
2022/01/21 07:42:04;;;;;;;10.32;5.72;;;4.50;97.20;;;;;;1719005;28;20487;-84
2022/01/21 07:42:56;;;;;;;11.23;5.30;;;4.50;97.20;;;;;;1718465;28;20193;-84
2022/01/21 07:43:46;;;;;;;9.70;5.50;;;4.50;97.20;;;;;;1717935;28;20681;-83
2022/01/21 07:44:38;;;;;;;8.23;5.90;;;4.50;97.20;;;;;;1718097;28;20197;-85
2022/01/21 07:45:30;;;;;;;10.85;5.65;;;4.50;97.20;;;;;;1720153;28;20209;-84
2022/01/21 07:46:23;;;;;;;12.30;5.65;;;4.50;97.20;;;;;;1722095;28;20202;-84
2022/01/21 07:47:15;;;;;;;11.10;5.65;;;4.50;97.20;;;;;;1720944;28;20197;-85
2022/01/21 07:48:08;;;;;;;10.60;5.60;;;4.50;97.20;;;;;;1720577;28;20217;-85
2022/01/21 07:49:01;;;;;;;10.88;5.40;;;4.50;97.20;;;;;;1722273;28;20229;-85
2022/01/21 07:49:52;;;;;;;8.35;5.13;;;4.50;97.20;;;;;;1721664;28;20209;-86
2022/01/21 07:50:44;;;;;;;10.43;4.95;;;4.50;97.20;;;;;;1716202;28;20218;-84
2022/01/21 07:51:36;;;;;;;9.65;4.85;;;4.40;97.20;;;;;;1718123;28;20205;-85
2022/01/21 07:52:28;;;;;;;10.40;5.45;;;4.50;97.20;;;;;;1721880;28;20201;-84
2022/01/21 07:53:19;;;;;;;11.32;5.55;;;4.50;97.20;;;;;;1721929;28;20212;-83
2022/01/21 07:54:11;;;;;;;12.65;6.60;;;4.50;97.20;;;;;;1720817;28;20567;-84
2022/01/21 07:55:02;;;;;;;12.55;5.85;;;4.50;97.20;;;;;;1721878;28;20225;-85
2022/01/21 07:55:54;;;;;;;10.70;5.70;;;4.50;97.20;;;;;;1721702;28;20201;-85
2022/01/21 07:56:45;;;;;;;11.25;6.10;;;4.60;97.20;;;;;;1722048;28;20237;-85
2022/01/21 07:57:38;;;;;;;14.57;6.43;;;4.60;97.20;;;;;;1721594;28;20204;-85
2022/01/21 07:58:29;;;;;;;9.95;6.72;;;4.60;97.20;;;;;;1722189;28;20460;-85
2022/01/21 07:59:21;;;;;;;8.98;6.20;;;4.60;97.20;;;;;;1722014;28;20944;-84
2022/01/21 08:00:13;;;;;;;15.70;7.50;;;4.60;97.20;;;;;;1721674;28;20660;-84
2022/01/21 08:01:05;;;;;;;11.30;6.18;;;4.60;97.20;;;;;;1721625;28;20209;-84
2022/01/21 08:01:57;;;;;;;10.48;6.50;;;4.60;97.20;;;;;;1721851;28;20239;-84
2022/01/21 08:02:48;;;;;;;10.38;6.45;;;4.60;97.20;;;;;;1719156;28;20193;-84
2022/01/21 08:03:39;;;;;;;11.45;6.78;;;4.60;97.20;;;;;;1715000;28;20674;-84
2022/01/21 08:04:32;;;;;;;10.23;6.60;;;4.60;97.20;;;;;;1715096;28;20725;-84
2022/01/21 08:05:28;;;;;;;9.63;7.03;;;4.60;97.20;;;;;;1715450;28;20202;-85
2022/01/21 08:06:19;;;;;;;12.65;7.15;;;4.60;97.20;;;;;;1719254;28;20204;-85
2022/01/21 08:07:11;;;;;;;14.18;7.05;;;4.70;97.20;;;;;;1715475;28;20225;-85
2022/01/21 08:08:04;;;;;;;10.05;6.63;;;4.60;97.20;;;;;;1717898;28;20225;-84
2022/01/21 08:08:55;;;;;;;10.57;6.70;;;4.60;97.20;;;;;;1721782;28;20264;-85
2022/01/21 08:09:48;;;;;;;10.23;7.00;;;4.50;97.20;;;;;;1722080;28;20197;-85
2022/01/21 08:10:39;;;;;;;10.75;7.35;;;4.60;97.20;;;;;;1717936;28;20475;-85
2022/01/21 08:11:31;;;;;;;10.10;7.37;;;4.60;97.20;;;;;;1717308;28;20283;-84
2022/01/21 08:12:22;;;;;;;11.80;7.45;;;4.60;97.20;;;;;;1718979;28;20193;-85
2022/01/21 08:13:13;;;;;;;11.27;7.90;;;4.60;97.20;;;;;;1721731;28;20217;-85
2022/01/21 08:14:04;;;;;;;11.95;7.82;;;4.60;97.20;;;;;;1721785;28;20209;-85
2022/01/21 08:14:56;;;;;;;9.73;7.30;;;4.60;97.20;;;;;;1720227;28;20208;-85
2022/01/21 08:15:47;;;;;;;11.05;7.20;;;4.60;97.20;;;;;;1717346;28;20197;-85
2022/01/21 08:16:39;;;;;;;10.43;6.33;;;4.70;97.20;;;;;;1715264;28;20289;-85
2022/01/21 08:17:30;;;;;;;9.88;6.72;;;4.70;97.20;;;;;;1714380;28;20210;-85
2022/01/21 08:18:22;;;;;;;15.30;6.90;;;4.70;97.20;;;;;;1714048;28;20205;-85
2022/01/21 08:19:13;;;;;;;9.63;6.30;;;4.70;97.20;;;;;;1714494;28;20206;-85
2022/01/21 08:20:08;;;;;;;8.93;5.93;;;4.80;97.20;;;;;;1714701;28;20233;-85
2022/01/21 08:20:59;;;;;;;13.70;6.43;;;4.80;97.20;;;;;;1714829;28;21008;-85
2022/01/21 08:21:50;;;;;;;17.20;8.20;;;4.80;97.20;;;;;;1715765;28;20579;-84
2022/01/21 08:22:41;;;;;;;14.48;8.52;;;4.80;97.20;;;;;;1716829;28;20217;-86
2022/01/21 08:23:33;;;;;;;14.60;7.83;;;4.80;97.20;;;;;;1715002;28;20236;-83
2022/01/21 08:24:24;;;;;;;16.30;9.18;;;4.80;97.20;;;;;;1720298;28;20959;-83
2022/01/21 08:25:16;;;;;;;9.90;8.40;;;4.80;97.20;;;;;;1721145;28;20603;-83
2022/01/21 08:26:06;;;;;;;10.45;7.75;;;4.90;97.20;;;;;;1721192;28;20205;-83
2022/01/21 08:26:58;;;;;;;10.20;7.87;;;4.90;97.20;;;;;;1721139;28;20201;-84
2022/01/21 08:27:49;;;;;;;12.35;7.75;;;4.90;97.20;;;;;;1720857;28;20980;-84
2022/01/21 08:28:41;;;;;;;12.13;8.73;;;5.00;97.20;;;;;;1721163;28;20687;-84
2022/01/21 08:29:32;;;;;;;14.02;7.95;;;5.00;97.20;;;;;;1721078;28;20444;-83
2022/01/21 08:30:24;;;;;;;14.90;7.07;;;5.00;97.20;;;;;;1721086;28;20251;-84
2022/01/21 08:31:14;;;;;;;15.57;7.10;;;5.10;97.20;;;;;;1720922;28;20209;-84
2022/01/21 08:32:07;;;;;;;13.70;7.60;;;5.10;97.20;;;;;;1720789;28;20311;-84
2022/01/21 08:32:58;;;;;;;11.95;5.80;;;5.10;97.20;;;;;;1721457;28;20567;-84
2022/01/21 08:33:50;;;;;;;10.57;6.38;;;5.20;97.20;;;;;;1721242;28;20205;-83
2022/01/21 08:34:42;;;;;;;9.65;5.80;;;5.20;97.20;;;;;;1721091;28;20205;-84
2022/01/21 08:35:36;;;;;;;10.43;5.78;;;5.20;97.20;;;;;;1721110;28;20676;-84
2022/01/21 08:36:27;;;;;;;10.82;5.78;;;5.20;97.20;;;;;;1721720;28;20685;-84
2022/01/21 08:37:19;;;;;;;10.40;5.50;;;5.20;97.20;;;;;;1721079;28;20212;-84
2022/01/21 08:38:09;;;;;;;8.25;5.00;;;5.30;97.20;;;;;;1720169;28;20750;-85
2022/01/21 08:39:01;;;;;;;13.43;6.23;;;5.30;97.20;;;;;;1716366;28;20665;-84
2022/01/21 08:39:52;;;;;;;10.23;5.85;;;5.30;97.20;;;;;;1721240;28;20201;-84
2022/01/21 08:40:45;;;;;;;9.32;5.30;;;5.40;97.20;;;;;;1720878;28;20225;-84
2022/01/21 08:41:35;;;;;;;7.97;5.45;;;5.40;97.20;;;;;;1721439;28;20212;-83
2022/01/21 08:42:28;;;;;;;10.90;5.60;;;5.50;97.20;;;;;;1721074;28;20197;-84
2022/01/21 08:43:18;;;;;;;9.88;4.85;;;5.50;97.20;;;;;;1721409;28;20201;-85
2022/01/21 08:44:10;;;;;;;7.43;5.20;;;5.50;97.20;;;;;;1721195;28;20200;-84
2022/01/21 08:45:02;;;;;;;7.28;4.57;;;5.50;97.20;;;;;;1721331;28;20683;-84
2022/01/21 08:45:54;;;;;;;11.70;4.78;;;5.50;97.20;;;;;;1721067;28;20738;-84
2022/01/21 08:46:45;;;;;;;12.10;5.60;;;5.40;97.20;;;;;;1721453;28;20247;-83
2022/01/21 08:47:37;;;;;;;9.13;4.70;;;5.40;97.20;;;;;;1720971;28;20668;-84
2022/01/21 08:48:27;;;;;;;7.68;4.85;;;5.40;97.20;;;;;;1721232;28;20229;-84
2022/01/21 08:49:20;;;;;;;14.13;6.13;;;5.40;97.20;;;;;;1721070;28;20208;-84
2022/01/21 08:50:13;;;;;;;9.38;5.68;;;5.40;97.20;;;;;;1721243;28;20611;-84
2022/01/21 08:51:10;;;;;;;7.07;5.05;;;5.40;97.20;;;;;;1723956;28;20748;-84
2022/01/21 08:52:02;;;;;;;7.07;4.97;;;5.40;97.20;;;;;;1723074;28;20201;-84
2022/01/21 08:52:56;;;;;;;8.60;5.13;;;5.40;97.20;;;;;;1721016;28;20664;-84
2022/01/21 08:53:47;;;;;;;8.52;5.03;;;5.40;97.20;;;;;;1721000;28;20213;-84
2022/01/21 08:54:38;;;;;;;8.80;4.90;;;5.30;97.20;;;;;;1721111;28;20209;-84
2022/01/21 08:55:29;;;;;;;9.32;5.15;;;5.30;97.20;;;;;;1721096;28;20444;-83
2022/01/21 08:56:21;;;;;;;9.63;5.80;;;5.30;97.20;;;;;;1721103;28;20653;-83
2022/01/21 08:57:13;;;;;;;9.30;5.30;;;5.30;97.20;;;;;;1720911;28;20660;-83
2022/01/21 08:58:04;;;;;;;8.82;5.60;;;5.20;97.20;;;;;;1720554;28;20201;-84
2022/01/21 08:58:55;;;;;;;7.90;5.82;;;5.20;97.20;;;;;;1720720;28;20660;-83
2022/01/21 08:59:49;;;;;;;12.20;5.80;;;5.20;97.20;;;;;;1720909;28;20684;-83
2022/01/21 09:00:41;;;;;;;12.13;6.13;;;5.20;97.20;;;;;;1721057;28;20484;-84
2022/01/21 09:01:32;;;;;;;10.15;5.60;;;5.20;97.20;;;;;;1721195;28;20208;-84
2022/01/21 09:02:23;;;;;;;9.37;6.37;;;5.20;97.20;;;;;;1720988;28;20208;-84
2022/01/21 09:03:14;;;;;;;10.52;6.03;;;5.20;97.20;;;;;;1720757;28;20208;-84
2022/01/21 09:04:06;;;;;;;11.23;6.53;;;5.20;97.20;;;;;;1720845;28;20296;-84
2022/01/21 09:04:57;;;;;;;9.30;6.40;;;5.20;97.20;;;;;;1720899;28;20455;-83
2022/01/21 09:05:50;;;;;;;11.73;7.40;;;5.10;97.20;;;;;;1720739;28;20205;-84
2022/01/21 09:06:44;;;;;;;11.00;6.88;;;5.10;97.20;;;;;;1720925;28;20209;-83
2022/01/21 09:07:35;;;;;;;11.57;7.75;;;5.10;97.20;;;;;;1720489;28;20716;-83
2022/01/21 09:08:30;;;;;;;13.02;7.72;;;5.10;97.20;;;;;;1720580;28;20221;-84
2022/01/21 09:09:20;;;;;;;10.57;6.90;;;5.10;97.20;;;;;;1720750;28;20288;-83
2022/01/21 09:10:13;;;;;;;9.73;6.87;;;5.10;97.20;;;;;;1720506;28;20205;-84
2022/01/21 09:11:05;;;;;;;11.88;7.18;;;5.10;97.20;;;;;;1720980;28;20209;-84
2022/01/21 09:12:00;;;;;;;11.00;6.97;;;5.10;97.20;;;;;;1720674;28;20735;-84
2022/01/21 09:12:50;;;;;;;12.27;7.28;;;5.10;97.20;;;;;;1720526;28;20209;-84
2022/01/21 09:13:42;;;;;;;13.10;7.00;;;5.20;97.20;;;;;;1720795;28;20193;-83
2022/01/21 09:14:34;;;;;;;15.20;6.70;;;5.20;97.20;;;;;;1720562;28;20209;-83
2022/01/21 09:15:25;;;;;;;12.50;7.40;;;5.20;97.20;;;;;;1720711;28;20204;-84
2022/01/21 09:16:17;;;;;;;10.15;6.63;;;5.20;97.20;;;;;;1720844;28;20216;-84
2022/01/21 09:17:09;;;;;;;8.23;6.45;;;5.20;97.20;;;;;;1720649;28;20280;-84
2022/01/21 09:18:04;;;;;;;13.00;5.53;;;5.20;97.20;;;;;;1720626;28;20228;-84
2022/01/21 09:18:58;;;;;;;10.65;5.80;;;5.30;97.20;;;;;;1720993;28;20232;-84
2022/01/21 09:19:50;;;;;;;9.07;5.38;;;5.30;97.20;;;;;;1720856;28;20205;-84
2022/01/21 09:20:41;;;;;;;10.07;5.63;;;5.30;97.20;;;;;;1720692;28;20232;-84
2022/01/21 09:21:35;;;;;;;9.70;5.57;;;5.20;97.20;;;;;;1720600;28;20719;-84
2022/01/21 09:22:27;;;;;;;10.00;5.88;;;5.20;97.20;;;;;;1720821;28;20679;-83
2022/01/21 09:23:19;;;;;;;9.38;5.63;;;5.20;97.20;;;;;;1720799;28;20209;-83
2022/01/21 09:24:09;;;;;;;8.65;5.55;;;5.20;97.20;;;;;;1720634;28;20201;-83
2022/01/21 09:25:01;;;;;;;9.90;6.10;;;5.20;97.20;;;;;;1720616;28;20313;-84
2022/01/21 09:25:52;;;;;;;15.15;5.78;;;5.20;97.20;;;;;;1720758;28;20459;-84
2022/01/21 09:26:44;;;;;;;7.50;5.10;;;5.20;97.20;;;;;;1720672;28;20276;-84
2022/01/21 09:27:35;;;;;;;9.52;5.53;;;5.20;97.20;;;;;;1720625;28;20205;-84
2022/01/21 09:28:26;;;;;;;8.70;5.50;;;5.20;97.20;;;;;;1720646;28;20232;-84
2022/01/21 09:29:18;;;;;;;10.40;5.33;;;5.30;97.20;;;;;;1720199;28;20216;-84
2022/01/21 09:30:10;;;;;;;9.23;5.38;;;5.30;97.20;;;;;;1720484;28;20240;-84
2022/01/21 09:31:02;;;;;;;8.07;6.50;;;5.30;97.20;;;;;;1720637;28;20204;-84
2022/01/21 09:31:54;;;;;;;11.60;6.20;;;5.30;97.20;;;;;;1720687;28;20828;-84
2022/01/21 09:32:45;;;;;;;10.00;5.47;;;5.30;97.20;;;;;;1720938;28;20929;-83
2022/01/21 09:33:37;;;;;;;7.25;5.15;;;5.30;97.20;;;;;;1720714;28;20197;-84
2022/01/21 09:34:30;;;;;;;9.70;5.85;;;5.30;97.20;;;;;;1720460;28;20201;-83
2022/01/21 09:35:21;;;;;;;8.82;5.30;;;5.40;97.20;;;;;;1717682;28;20194;-84
2022/01/21 09:36:13;;;;;;;17.00;5.20;;;5.40;97.20;;;;;;1715465;28;20200;-83
2022/01/21 09:37:05;;;;;;;12.73;5.10;;;5.40;97.20;;;;;;1714217;28;20452;-84
2022/01/21 09:37:57;;;;;;;8.10;5.65;;;5.40;97.20;;;;;;1713803;28;20202;-84
2022/01/21 09:38:49;;;;;;;7.90;5.15;;;5.40;97.20;;;;;;1714034;28;20289;-84
2022/01/21 09:39:40;;;;;;;11.60;5.75;;;5.40;97.20;;;;;;1714487;28;20213;-84
2022/01/21 09:40:33;;;;;;;11.63;6.47;;;5.40;97.20;;;;;;1714142;28;20226;-83
2022/01/21 09:41:25;;;;;;;12.05;5.60;;;5.40;97.20;;;;;;1716959;28;20244;-83
2022/01/21 09:42:17;;;;;;;11.13;6.55;;;5.40;97.20;;;;;;1720786;28;20221;-84
2022/01/21 09:43:09;;;;;;;11.52;6.30;;;5.40;97.20;;;;;;1720821;28;20206;-84
2022/01/21 09:44:02;;;;;;;10.10;5.60;;;5.40;97.20;;;;;;1721537;28;20201;-83
2022/01/21 09:44:54;;;;;;;11.93;6.90;;;5.40;97.20;;;;;;1721639;28;20224;-83
2022/01/21 09:45:47;;;;;;;8.60;5.30;;;5.40;97.20;;;;;;1722315;28;20698;-84
2022/01/21 09:46:43;;;;;;;13.98;6.10;;;5.30;97.20;;;;;;1721597;28;20208;-83
2022/01/21 09:47:43;;;;;;;12.25;5.80;;;5.30;97.20;;;;;;1715560;28;20206;-83
2022/01/21 09:48:49;;;;;;;15.45;5.95;;;5.30;97.20;;;;;;1715055;28;20677;-83
2022/01/21 09:49:42;;;;;;;9.27;5.43;;;5.30;97.20;;;;;;1715229;28;20214;-84
2022/01/21 09:50:33;;;;;;;9.25;5.75;;;5.30;97.20;;;;;;1717964;28;20711;-83
2022/01/21 09:51:26;;;;;;;9.23;5.47;;;5.30;97.20;;;;;;1719092;28;20210;-83
2022/01/21 09:52:19;;;;;;;10.45;5.45;;;5.30;97.20;;;;;;1718235;28;20246;-83
2022/01/21 09:53:12;;;;;;;9.63;4.97;;;5.20;97.20;;;;;;1718016;28;20201;-83
2022/01/21 09:54:05;;;;;;;10.02;5.47;;;5.20;97.20;;;;;;1718134;28;20194;-83
2022/01/21 09:54:57;;;;;;;11.05;5.00;;;5.20;97.20;;;;;;1718559;28;20194;-83
2022/01/21 09:55:48;;;;;;;10.15;4.90;;;5.20;97.20;;;;;;1719324;28;20205;-84
2022/01/21 09:56:40;;;;;;;11.67;4.90;;;5.20;97.20;;;;;;1718073;28;20208;-83
2022/01/21 09:57:32;;;;;;;7.05;4.90;;;5.20;97.20;;;;;;1717948;28;20436;-84
2022/01/21 09:58:25;;;;;;;7.30;5.20;;;5.30;97.20;;;;;;1714940;28;20206;-83
2022/01/21 09:59:19;;;;;;;8.02;5.60;;;5.30;97.20;;;;;;1719816;28;20224;-84
2022/01/21 10:00:11;;;;;;;9.77;4.78;;;5.40;97.20;;;;;;1721837;28;20244;-83
2022/01/21 10:01:05;;;;;;;9.63;5.30;;;5.40;97.20;;;;;;1722058;28;20237;-83
2022/01/21 10:02:00;;;;;;;11.85;5.65;;;5.40;97.20;;;;;;1721621;28;20208;-83
2022/01/21 10:02:52;;;;;;;9.65;5.13;;;5.40;97.20;;;;;;1721707;28;20736;-83
2022/01/21 10:03:44;;;;;;;11.23;5.57;;;5.40;97.20;;;;;;1721712;28;20204;-83
2022/01/21 10:04:39;;;;;;;9.20;4.60;;;5.40;97.20;;;;;;1721867;28;20695;-83
2022/01/21 10:05:30;;;;;;;8.18;4.80;;;5.40;97.20;;;;;;1721976;28;20208;-83
2022/01/21 10:06:25;;;;;;;7.45;4.10;;;5.30;97.20;;;;;;1721769;28;20201;-83
2022/01/21 10:07:19;;;;;;;9.63;4.63;;;5.30;97.20;;;;;;1721999;28;20210;-84
2022/01/21 10:08:11;;;;;;;9.68;4.70;;;5.30;97.20;;;;;;1721384;28;20205;-84
2022/01/21 10:09:04;;;;;;;8.63;4.47;;;5.40;97.20;;;;;;1721725;28;20221;-83
2022/01/21 10:09:55;;;;;;;9.55;5.20;;;5.40;97.20;;;;;;1722089;28;20238;-83
2022/01/21 10:10:46;;;;;;;10.60;4.87;;;5.40;97.20;;;;;;1721762;28;20217;-83
2022/01/21 10:11:37;;;;;;;8.63;4.85;;;5.40;97.20;;;;;;1721681;28;20208;-83
2022/01/21 10:12:29;;;;;;;9.30;4.93;;;5.50;97.20;;;;;;1721655;28;20205;-84
2022/01/21 10:13:20;;;;;;;8.10;4.40;;;5.50;97.20;;;;;;1721891;28;20289;-83
2022/01/21 10:14:12;;;;;;;6.15;4.25;;;5.60;97.20;;;;;;1722172;28;20618;-83
2022/01/21 10:15:04;;;;;;;7.50;4.25;;;5.60;97.20;;;;;;1721452;28;20197;-83
2022/01/21 10:15:56;;;;;;;8.15;4.55;;;5.60;97.20;;;;;;1721760;28;20205;-84
2022/01/21 10:16:48;;;;;;;10.75;4.68;;;5.60;97.20;;;;;;1721820;28;20332;-84
2022/01/21 10:17:40;;;;;;;6.88;4.35;;;5.60;97.20;;;;;;1721595;28;20212;-83
2022/01/21 10:18:31;;;;;;;10.15;4.55;;;5.60;97.20;;;;;;1721601;28;20201;-83
2022/01/21 10:19:25;;;;;;;7.43;4.30;;;5.60;97.20;;;;;;1721525;28;20201;-83
2022/01/21 10:20:21;;;;;;;8.63;4.45;;;5.60;97.20;;;;;;1721140;28;20232;-84
2022/01/21 10:21:13;;;;;;;10.00;5.00;;;5.50;97.20;;;;;;1715185;28;20244;-84
2022/01/21 10:22:08;;;;;;;9.88;4.75;;;5.50;97.20;;;;;;1714984;28;20563;-84
2022/01/21 10:23:03;;;;;;;10.93;5.55;;;5.50;97.20;;;;;;1716199;28;20205;-83
2022/01/21 10:24:05;;;;;;;10.70;5.15;;;5.60;97.20;;;;;;1721629;28;20316;-83
2022/01/21 10:24:59;;;;;;;10.32;5.10;;;5.60;97.20;;;;;;1722234;28;20198;-84
2022/01/21 10:25:57;;;;;;;12.68;6.10;;;5.60;97.20;;;;;;1721670;28;20216;-84
2022/01/21 10:26:50;;;;;;;8.27;5.18;;;5.70;97.20;;;;;;1721690;28;20612;-83
2022/01/21 10:27:41;;;;;;;9.15;4.88;;;5.70;97.20;;;;;;1721342;28;20673;-83
2022/01/21 10:28:34;;;;;;;6.40;4.50;;;5.80;97.20;;;;;;1721550;28;20544;-83
2022/01/21 10:29:36;;;;;;;8.05;4.82;;;5.80;97.20;;;;;;1721427;28;20237;-84
2022/01/21 10:30:28;;;;;;;10.35;5.60;;;5.80;97.20;;;;;;1722172;28;20272;-84
2022/01/21 10:31:20;;;;;;;9.30;5.97;;;5.90;97.20;;;;;;1721259;28;20280;-83
2022/01/21 10:32:12;;;;;;;13.88;4.93;;;5.90;97.20;;;;;;1721445;28;20213;-83